KFST

Fort Stockton-Pecos County Airport

Fort Stockton, Texas, USA
METAR KFST 140653Z AUTO 31011KT 10SM CLR 01/M08 A3027 RMK AO2 SLP244 T00111078
Observed Flight Rules
Dec-14 @ 06:53 UTC (49 minutes ago) Visual Flight Rules
Wind Visibility Clouds
310° at 11 knots 10 miles
  • Clear skies
Temperatures Readings
Current 1°C / 34°F
Dewpoint -8°C / 18°F
Humidity 51%
Altimeter 30.27" Hg
Pressure 1024.4 hPa
Elevation 918
METAR KFST 140653Z AUTO 31011KT 10SM CLR 01/M08 A3027 RMK AO2 SLP244 T00111078
Observed Flight Rules
Dec-14 @ 06:53 UTC
(49 minutes ago)
VFR
Wind Visibility
310° at 11 knots 10 miles
Clouds
  • Clear skies
Temperature Dewpoint
1°C / 34°F -8°C / 18°F
Humidity Altimeter Pressure
51% 30.27" Hg 1024.4 hPa